sensor_id;sensor_type;location;lat;lon;timestamp;temperature;humidity
52509;DHT22;38420;53.150;6.370;2022-11-30T00:02:24;6.00;99.90
52509;DHT22;38420;53.150;6.370;2022-11-30T00:04:49;6.20;99.90
52509;DHT22;38420;53.150;6.370;2022-11-30T00:07:15;6.10;99.90
52509;DHT22;38420;53.150;6.370;2022-11-30T00:09:40;5.80;99.90
52509;DHT22;38420;53.150;6.370;2022-11-30T00:12:06;5.80;99.90
52509;DHT22;38420;53.150;6.370;2022-11-30T00:14:32;5.90;99.90
52509;DHT22;38420;53.150;6.370;2022-11-30T00:16:57;5.60;99.90
52509;DHT22;38420;53.150;6.370;2022-11-30T00:19:23;5.60;99.90
52509;DHT22;38420;53.150;6.370;2022-11-30T00:21:49;5.50;99.90
52509;DHT22;38420;53.150;6.370;2022-11-30T00:24:14;5.50;99.90
52509;DHT22;38420;53.150;6.370;2022-11-30T00:26:40;5.70;99.90
52509;DHT22;38420;53.150;6.370;2022-11-30T00:29:05;5.60;99.90
52509;DHT22;38420;53.150;6.370;2022-11-30T00:31:31;5.40;99.90
52509;DHT22;38420;53.150;6.370;2022-11-30T00:33:57;5.50;99.90
52509;DHT22;38420;53.150;6.370;2022-11-30T00:36:22;5.30;99.90
52509;DHT22;38420;53.150;6.370;2022-11-30T00:38:49;5.40;99.90
52509;DHT22;38420;53.150;6.370;2022-11-30T00:41:15;5.20;99.90
52509;DHT22;38420;53.150;6.370;2022-11-30T00:43:41;5.40;99.90
52509;DHT22;38420;53.150;6.370;2022-11-30T00:46:07;5.20;99.90
52509;DHT22;38420;53.150;6.370;2022-11-30T00:48:34;5.40;99.90
52509;DHT22;38420;53.150;6.370;2022-11-30T00:51:00;5.50;99.90
52509;DHT22;38420;53.150;6.370;2022-11-30T00:53:25;5.40;99.90
52509;DHT22;38420;53.150;6.370;2022-11-30T00:55:51;5.50;99.90
52509;DHT22;38420;53.150;6.370;2022-11-30T00:58:17;5.50;99.90
52509;DHT22;38420;53.150;6.370;2022-11-30T01:00:43;5.60;99.90
52509;DHT22;38420;53.150;6.370;2022-11-30T01:03:09;5.50;99.90
52509;DHT22;38420;53.150;6.370;2022-11-30T01:05:35;5.50;99.90
52509;DHT22;38420;53.150;6.370;2022-11-30T01:08:05;5.40;99.90
52509;DHT22;38420;53.150;6.370;2022-11-30T01:10:33;5.30;99.90
52509;DHT22;38420;53.150;6.370;2022-11-30T01:12:59;5.30;99.90
52509;DHT22;38420;53.150;6.370;2022-11-30T01:15:25;5.50;99.90
52509;DHT22;38420;53.150;6.370;2022-11-30T01:17:50;5.50;99.90
52509;DHT22;38420;53.150;6.370;2022-11-30T01:20:16;5.60;99.90
52509;DHT22;38420;53.150;6.370;2022-11-30T01:22:42;5.70;99.90
52509;DHT22;38420;53.150;6.370;2022-11-30T01:25:08;5.80;99.90
52509;DHT22;38420;53.150;6.370;2022-11-30T01:27:33;5.70;99.90
52509;DHT22;38420;53.150;6.370;2022-11-30T01:29:59;5.90;99.90
52509;DHT22;38420;53.150;6.370;2022-11-30T01:32:24;5.60;99.90
52509;DHT22;38420;53.150;6.370;2022-11-30T01:34:50;5.50;99.90
52509;DHT22;38420;53.150;6.370;2022-11-30T01:37:16;5.50;99.90
52509;DHT22;38420;53.150;6.370;2022-11-30T01:39:41;5.80;99.90
52509;DHT22;38420;53.150;6.370;2022-11-30T01:42:14;5.70;99.90
52509;DHT22;38420;53.150;6.370;2022-11-30T01:47:18;5.50;99.90
52509;DHT22;38420;53.150;6.370;2022-11-30T01:49:50;5.90;99.90
52509;DHT22;38420;53.150;6.370;2022-11-30T01:52:30;5.90;99.90
52509;DHT22;38420;53.150;6.370;2022-11-30T01:55:05;5.60;99.90
52509;DHT22;38420;53.150;6.370;2022-11-30T01:57:41;5.90;99.90
52509;DHT22;38420;53.150;6.370;2022-11-30T02:00:13;5.70;99.90
52509;DHT22;38420;53.150;6.370;2022-11-30T02:02:47;5.50;99.90
52509;DHT22;38420;53.150;6.370;2022-11-30T02:05:15;5.70;99.90
52509;DHT22;38420;53.150;6.370;2022-11-30T02:07:41;5.80;99.90
52509;DHT22;38420;53.150;6.370;2022-11-30T02:10:16;6.00;99.90
52509;DHT22;38420;53.150;6.370;2022-11-30T02:12:51;5.70;99.90
52509;DHT22;38420;53.150;6.370;2022-11-30T02:15:25;6.00;99.90
52509;DHT22;38420;53.150;6.370;2022-11-30T02:18:00;6.00;99.90
52509;DHT22;38420;53.150;6.370;2022-11-30T02:20:50;5.80;99.90
52509;DHT22;38420;53.150;6.370;2022-11-30T02:26:08;6.10;99.90
52509;DHT22;38420;53.150;6.370;2022-11-30T02:31:18;5.60;99.90
52509;DHT22;38420;53.150;6.370;2022-11-30T02:33:45;6.00;99.90
52509;DHT22;38420;53.150;6.370;2022-11-30T02:36:12;5.80;99.90
52509;DHT22;38420;53.150;6.370;2022-11-30T02:38:38;6.10;99.90
52509;DHT22;38420;53.150;6.370;2022-11-30T02:41:04;5.70;99.90
52509;DHT22;38420;53.150;6.370;2022-11-30T02:43:31;6.00;99.90
52509;DHT22;38420;53.150;6.370;2022-11-30T02:46:18;6.20;99.90
52509;DHT22;38420;53.150;6.370;2022-11-30T02:48:46;6.20;99.90
52509;DHT22;38420;53.150;6.370;2022-11-30T02:51:17;6.10;99.90
52509;DHT22;38420;53.150;6.370;2022-11-30T02:53:44;6.10;99.90
52509;DHT22;38420;53.150;6.370;2022-11-30T02:56:11;6.10;99.90
52509;DHT22;38420;53.150;6.370;2022-11-30T02:58:37;5.80;99.90
52509;DHT22;38420;53.150;6.370;2022-11-30T03:01:03;6.20;99.90
52509;DHT22;38420;53.150;6.370;2022-11-30T03:03:29;5.80;99.90
52509;DHT22;38420;53.150;6.370;2022-11-30T03:05:54;6.10;99.90
52509;DHT22;38420;53.150;6.370;2022-11-30T03:08:20;5.90;99.90
52509;DHT22;38420;53.150;6.370;2022-11-30T03:10:45;6.10;99.90
52509;DHT22;38420;53.150;6.370;2022-11-30T03:13:11;6.10;99.90
52509;DHT22;38420;53.150;6.370;2022-11-30T03:15:36;5.80;99.90
52509;DHT22;38420;53.150;6.370;2022-11-30T03:18:03;5.80;99.90
52509;DHT22;38420;53.150;6.370;2022-11-30T03:20:29;5.80;99.90
52509;DHT22;38420;53.150;6.370;2022-11-30T03:22:58;6.20;99.90
52509;DHT22;38420;53.150;6.370;2022-11-30T03:25:25;6.00;99.90
52509;DHT22;38420;53.150;6.370;2022-11-30T03:27:50;6.20;99.90
52509;DHT22;38420;53.150;6.370;2022-11-30T03:30:16;6.20;99.90
52509;DHT22;38420;53.150;6.370;2022-11-30T03:32:41;5.70;99.90
52509;DHT22;38420;53.150;6.370;2022-11-30T03:35:08;6.20;99.90
52509;DHT22;38420;53.150;6.370;2022-11-30T03:37:34;6.10;99.90
52509;DHT22;38420;53.150;6.370;2022-11-30T03:39:59;6.20;99.90
52509;DHT22;38420;53.150;6.370;2022-11-30T03:42:25;6.20;99.90
52509;DHT22;38420;53.150;6.370;2022-11-30T03:44:50;5.90;99.90
52509;DHT22;38420;53.150;6.370;2022-11-30T03:47:16;6.30;99.90
52509;DHT22;38420;53.150;6.370;2022-11-30T03:49:41;6.00;99.90
52509;DHT22;38420;53.150;6.370;2022-11-30T03:52:07;5.80;99.90
52509;DHT22;38420;53.150;6.370;2022-11-30T03:54:32;5.80;99.90
52509;DHT22;38420;53.150;6.370;2022-11-30T03:56:58;6.30;99.90
52509;DHT22;38420;53.150;6.370;2022-11-30T03:59:24;5.90;99.90
52509;DHT22;38420;53.150;6.370;2022-11-30T04:01:49;6.20;99.90
52509;DHT22;38420;53.150;6.370;2022-11-30T04:04:15;6.20;99.90
52509;DHT22;38420;53.150;6.370;2022-11-30T04:06:40;6.00;99.90
52509;DHT22;38420;53.150;6.370;2022-11-30T04:09:06;5.90;99.90
52509;DHT22;38420;53.150;6.370;2022-11-30T04:11:32;6.40;99.90
52509;DHT22;38420;53.150;6.370;2022-11-30T04:13:57;6.40;99.90
52509;DHT22;38420;53.150;6.370;2022-11-30T04:16:23;6.50;99.90
52509;DHT22;38420;53.150;6.370;2022-11-30T04:18:48;5.70;99.90
52509;DHT22;38420;53.150;6.370;2022-11-30T04:21:14;6.40;99.90
52509;DHT22;38420;53.150;6.370;2022-11-30T04:23:40;6.00;99.90
52509;DHT22;38420;53.150;6.370;2022-11-30T04:26:07;6.10;99.90
52509;DHT22;38420;53.150;6.370;2022-11-30T04:28:34;5.90;99.90
52509;DHT22;38420;53.150;6.370;2022-11-30T04:31:00;6.50;99.90
52509;DHT22;38420;53.150;6.370;2022-11-30T04:33:27;6.40;99.90
52509;DHT22;38420;53.150;6.370;2022-11-30T04:35:55;6.40;99.90
52509;DHT22;38420;53.150;6.370;2022-11-30T04:38:21;6.50;99.90
52509;DHT22;38420;53.150;6.370;2022-11-30T04:40:47;6.30;99.90
52509;DHT22;38420;53.150;6.370;2022-11-30T04:43:13;6.10;99.90
52509;DHT22;38420;53.150;6.370;2022-11-30T04:45:39;6.30;99.90
52509;DHT22;38420;53.150;6.370;2022-11-30T04:48:05;6.00;99.90
52509;DHT22;38420;53.150;6.370;2022-11-30T04:50:31;6.30;99.90
52509;DHT22;38420;53.150;6.370;2022-11-30T04:52:57;5.80;99.90
52509;DHT22;38420;53.150;6.370;2022-11-30T04:55:23;6.30;99.90
52509;DHT22;38420;53.150;6.370;2022-11-30T04:57:48;5.80;99.90
52509;DHT22;38420;53.150;6.370;2022-11-30T05:00:15;6.20;99.90
52509;DHT22;38420;53.150;6.370;2022-11-30T05:02:42;5.80;99.90
52509;DHT22;38420;53.150;6.370;2022-11-30T05:05:08;6.20;99.90
52509;DHT22;38420;53.150;6.370;2022-11-30T05:07:34;6.40;99.90
52509;DHT22;38420;53.150;6.370;2022-11-30T05:10:00;6.40;99.90
52509;DHT22;38420;53.150;6.370;2022-11-30T05:12:25;6.20;99.90
52509;DHT22;38420;53.150;6.370;2022-11-30T05:14:51;6.10;99.90
52509;DHT22;38420;53.150;6.370;2022-11-30T05:17:17;6.30;99.90
52509;DHT22;38420;53.150;6.370;2022-11-30T05:19:42;5.80;99.90
52509;DHT22;38420;53.150;6.370;2022-11-30T05:22:08;6.40;99.90
52509;DHT22;38420;53.150;6.370;2022-11-30T05:24:33;5.90;99.90
52509;DHT22;38420;53.150;6.370;2022-11-30T05:26:59;6.10;99.90
52509;DHT22;38420;53.150;6.370;2022-11-30T05:29:25;6.40;99.90
52509;DHT22;38420;53.150;6.370;2022-11-30T05:31:50;6.30;99.90
52509;DHT22;38420;53.150;6.370;2022-11-30T05:34:16;6.00;99.90
52509;DHT22;38420;53.150;6.370;2022-11-30T05:36:41;5.90;99.90
52509;DHT22;38420;53.150;6.370;2022-11-30T05:39:07;6.20;99.90
52509;DHT22;38420;53.150;6.370;2022-11-30T05:41:33;6.30;99.90
52509;DHT22;38420;53.150;6.370;2022-11-30T05:43:58;6.10;99.90
52509;DHT22;38420;53.150;6.370;2022-11-30T05:46:24;6.10;99.90
52509;DHT22;38420;53.150;6.370;2022-11-30T05:48:49;6.00;99.90
52509;DHT22;38420;53.150;6.370;2022-11-30T05:51:17;6.60;99.90
52509;DHT22;38420;53.150;6.370;2022-11-30T05:53:44;6.00;99.90
52509;DHT22;38420;53.150;6.370;2022-11-30T05:56:13;6.40;99.90
52509;DHT22;38420;53.150;6.370;2022-11-30T05:58:39;6.40;99.90
52509;DHT22;38420;53.150;6.370;2022-11-30T06:01:05;6.10;99.90
52509;DHT22;38420;53.150;6.370;2022-11-30T06:03:33;6.00;99.90
52509;DHT22;38420;53.150;6.370;2022-11-30T06:05:59;6.30;99.90
52509;DHT22;38420;53.150;6.370;2022-11-30T06:08:25;6.60;99.90
52509;DHT22;38420;53.150;6.370;2022-11-30T06:10:51;6.60;99.90
52509;DHT22;38420;53.150;6.370;2022-11-30T06:13:18;6.50;99.90
52509;DHT22;38420;53.150;6.370;2022-11-30T06:15:43;6.60;99.90
52509;DHT22;38420;53.150;6.370;2022-11-30T06:18:11;6.60;99.90
52509;DHT22;38420;53.150;6.370;2022-11-30T06:20:37;6.60;99.90
52509;DHT22;38420;53.150;6.370;2022-11-30T06:23:03;6.10;99.90
52509;DHT22;38420;53.150;6.370;2022-11-30T06:25:29;6.30;99.90
52509;DHT22;38420;53.150;6.370;2022-11-30T06:27:54;6.70;99.90
52509;DHT22;38420;53.150;6.370;2022-11-30T06:30:20;6.20;99.90
52509;DHT22;38420;53.150;6.370;2022-11-30T06:32:47;6.50;99.90
52509;DHT22;38420;53.150;6.370;2022-11-30T06:35:13;6.10;99.90
52509;DHT22;38420;53.150;6.370;2022-11-30T06:37:38;6.20;99.90
52509;DHT22;38420;53.150;6.370;2022-11-30T06:40:05;6.50;99.90
52509;DHT22;38420;53.150;6.370;2022-11-30T06:42:32;6.20;99.90
52509;DHT22;38420;53.150;6.370;2022-11-30T06:44:57;6.60;99.90
52509;DHT22;38420;53.150;6.370;2022-11-30T06:47:24;6.40;99.90
52509;DHT22;38420;53.150;6.370;2022-11-30T06:49:50;6.20;99.90
52509;DHT22;38420;53.150;6.370;2022-11-30T06:52:16;6.00;99.90
52509;DHT22;38420;53.150;6.370;2022-11-30T06:54:42;6.10;99.90
52509;DHT22;38420;53.150;6.370;2022-11-30T06:57:08;6.50;99.90
52509;DHT22;38420;53.150;6.370;2022-11-30T06:59:33;6.20;99.90
52509;DHT22;38420;53.150;6.370;2022-11-30T07:02:01;6.00;99.90
52509;DHT22;38420;53.150;6.370;2022-11-30T07:04:26;6.10;99.90
52509;DHT22;38420;53.150;6.370;2022-11-30T07:06:52;6.10;99.90
52509;DHT22;38420;53.150;6.370;2022-11-30T07:09:17;6.50;99.90
52509;DHT22;38420;53.150;6.370;2022-11-30T07:11:43;6.00;99.90
52509;DHT22;38420;53.150;6.370;2022-11-30T07:14:09;6.40;99.90
52509;DHT22;38420;53.150;6.370;2022-11-30T07:16:34;6.10;99.90
52509;DHT22;38420;53.150;6.370;2022-11-30T07:19:00;6.00;99.90
52509;DHT22;38420;53.150;6.370;2022-11-30T07:21:25;6.40;99.90
52509;DHT22;38420;53.150;6.370;2022-11-30T07:23:51;5.90;99.90
52509;DHT22;38420;53.150;6.370;2022-11-30T07:26:35;6.10;99.90
52509;DHT22;38420;53.150;6.370;2022-11-30T07:29:00;5.90;99.90
52509;DHT22;38420;53.150;6.370;2022-11-30T07:31:28;6.10;99.90
52509;DHT22;38420;53.150;6.370;2022-11-30T07:33:56;5.90;99.90
52509;DHT22;38420;53.150;6.370;2022-11-30T07:36:23;6.40;99.90
52509;DHT22;38420;53.150;6.370;2022-11-30T07:38:50;5.90;99.90
52509;DHT22;38420;53.150;6.370;2022-11-30T07:41:16;6.00;99.90
52509;DHT22;38420;53.150;6.370;2022-11-30T07:43:42;6.20;99.90
52509;DHT22;38420;53.150;6.370;2022-11-30T07:46:10;6.40;99.90
52509;DHT22;38420;53.150;6.370;2022-11-30T07:48:37;5.80;99.90
52509;DHT22;38420;53.150;6.370;2022-11-30T07:51:17;6.00;99.90
52509;DHT22;38420;53.150;6.370;2022-11-30T07:53:43;6.30;99.90
52509;DHT22;38420;53.150;6.370;2022-11-30T07:56:17;6.10;99.90
52509;DHT22;38420;53.150;6.370;2022-11-30T07:58:43;6.20;99.90
52509;DHT22;38420;53.150;6.370;2022-11-30T08:01:15;6.00;99.90
52509;DHT22;38420;53.150;6.370;2022-11-30T08:03:41;6.40;99.90
52509;DHT22;38420;53.150;6.370;2022-11-30T08:06:10;5.90;99.90
52509;DHT22;38420;53.150;6.370;2022-11-30T08:08:38;6.40;99.90
52509;DHT22;38420;53.150;6.370;2022-11-30T08:11:05;6.00;99.90
52509;DHT22;38420;53.150;6.370;2022-11-30T08:13:31;6.20;99.90
52509;DHT22;38420;53.150;6.370;2022-11-30T08:16:02;6.30;99.90
52509;DHT22;38420;53.150;6.370;2022-11-30T08:18:28;6.00;99.90
52509;DHT22;38420;53.150;6.370;2022-11-30T08:21:02;6.50;99.90
52509;DHT22;38420;53.150;6.370;2022-11-30T08:23:42;5.90;99.90
52509;DHT22;38420;53.150;6.370;2022-11-30T08:26:09;6.40;99.90
52509;DHT22;38420;53.150;6.370;2022-11-30T08:28:35;6.30;99.90
52509;DHT22;38420;53.150;6.370;2022-11-30T08:31:03;6.40;99.90
52509;DHT22;38420;53.150;6.370;2022-11-30T08:33:30;6.00;99.90
52509;DHT22;38420;53.150;6.370;2022-11-30T08:36:18;5.90;99.90
52509;DHT22;38420;53.150;6.370;2022-11-30T08:38:44;5.90;99.90
52509;DHT22;38420;53.150;6.370;2022-11-30T08:41:13;5.90;99.90
52509;DHT22;38420;53.150;6.370;2022-11-30T08:43:39;6.00;99.90
52509;DHT22;38420;53.150;6.370;2022-11-30T08:46:07;6.20;99.90
52509;DHT22;38420;53.150;6.370;2022-11-30T08:48:33;6.20;99.90
52509;DHT22;38420;53.150;6.370;2022-11-30T08:51:00;6.00;99.90
52509;DHT22;38420;53.150;6.370;2022-11-30T08:53:26;6.30;99.90
52509;DHT22;38420;53.150;6.370;2022-11-30T08:56:02;5.90;99.90
52509;DHT22;38420;53.150;6.370;2022-11-30T08:58:30;6.30;99.90
52509;DHT22;38420;53.150;6.370;2022-11-30T09:03:45;6.50;99.90
52509;DHT22;38420;53.150;6.370;2022-11-30T09:06:13;5.90;99.90
52509;DHT22;38420;53.150;6.370;2022-11-30T09:08:41;6.50;99.90
52509;DHT22;38420;53.150;6.370;2022-11-30T09:11:12;6.10;99.90
52509;DHT22;38420;53.150;6.370;2022-11-30T09:13:38;6.50;99.90
52509;DHT22;38420;53.150;6.370;2022-11-30T09:16:04;6.50;99.90
52509;DHT22;38420;53.150;6.370;2022-11-30T09:18:30;6.50;99.90
52509;DHT22;38420;53.150;6.370;2022-11-30T09:21:07;6.30;99.90
52509;DHT22;38420;53.150;6.370;2022-11-30T09:23:33;6.60;99.90
52509;DHT22;38420;53.150;6.370;2022-11-30T09:26:01;6.60;99.90
52509;DHT22;38420;53.150;6.370;2022-11-30T09:28:28;6.60;99.90
52509;DHT22;38420;53.150;6.370;2022-11-30T09:31:03;6.30;99.90
52509;DHT22;38420;53.150;6.370;2022-11-30T09:33:30;6.30;99.90
52509;DHT22;38420;53.150;6.370;2022-11-30T09:35:57;6.70;99.90
52509;DHT22;38420;53.150;6.370;2022-11-30T09:38:23;6.10;99.90
52509;DHT22;38420;53.150;6.370;2022-11-30T09:40:54;6.60;99.90
52509;DHT22;38420;53.150;6.370;2022-11-30T09:43:46;6.50;99.90
52509;DHT22;38420;53.150;6.370;2022-11-30T09:46:15;6.40;99.90
52509;DHT22;38420;53.150;6.370;2022-11-30T09:48:52;6.50;99.90
52509;DHT22;38420;53.150;6.370;2022-11-30T09:51:25;6.60;99.90
52509;DHT22;38420;53.150;6.370;2022-11-30T09:54:02;6.50;99.90
52509;DHT22;38420;53.150;6.370;2022-11-30T09:56:35;6.70;99.90
52509;DHT22;38420;53.150;6.370;2022-11-30T09:59:21;6.50;99.90
52509;DHT22;38420;53.150;6.370;2022-11-30T10:01:49;6.50;99.90
52509;DHT22;38420;53.150;6.370;2022-11-30T10:04:27;6.60;99.90
52509;DHT22;38420;53.150;6.370;2022-11-30T10:07:14;6.40;99.90
52509;DHT22;38420;53.150;6.370;2022-11-30T10:12:24;6.80;99.90
52509;DHT22;38420;53.150;6.370;2022-11-30T10:15:05;6.80;99.90
52509;DHT22;38420;53.150;6.370;2022-11-30T10:17:55;6.80;99.90
52509;DHT22;38420;53.150;6.370;2022-11-30T10:20:30;6.70;99.90
52509;DHT22;38420;53.150;6.370;2022-11-30T10:31:12;6.50;99.90
52509;DHT22;38420;53.150;6.370;2022-11-30T10:33:42;6.40;99.90
52509;DHT22;38420;53.150;6.370;2022-11-30T10:36:14;6.50;99.90
52509;DHT22;38420;53.150;6.370;2022-11-30T10:38:48;6.60;99.90
52509;DHT22;38420;53.150;6.370;2022-11-30T10:41:45;6.40;99.90
52509;DHT22;38420;53.150;6.370;2022-11-30T10:44:27;6.50;99.90
52509;DHT22;38420;53.150;6.370;2022-11-30T10:47:24;6.50;99.90
52509;DHT22;38420;53.150;6.370;2022-11-30T10:49:51;6.90;99.90
52509;DHT22;38420;53.150;6.370;2022-11-30T10:52:44;6.90;99.90
52509;DHT22;38420;53.150;6.370;2022-11-30T10:55:17;6.50;99.90
52509;DHT22;38420;53.150;6.370;2022-11-30T10:57:46;6.60;99.90
52509;DHT22;38420;53.150;6.370;2022-11-30T11:00:13;6.50;99.90
52509;DHT22;38420;53.150;6.370;2022-11-30T11:02:45;6.80;99.90
52509;DHT22;38420;53.150;6.370;2022-11-30T11:08:02;6.90;99.90
52509;DHT22;38420;53.150;6.370;2022-11-30T11:10:35;6.50;99.90
52509;DHT22;38420;53.150;6.370;2022-11-30T11:13:16;6.60;99.90
52509;DHT22;38420;53.150;6.370;2022-11-30T11:15:58;6.50;99.90
52509;DHT22;38420;53.150;6.370;2022-11-30T11:18:26;6.80;99.90
52509;DHT22;38420;53.150;6.370;2022-11-30T11:21:06;6.90;99.90
52509;DHT22;38420;53.150;6.370;2022-11-30T11:23:40;6.90;99.90
52509;DHT22;38420;53.150;6.370;2022-11-30T11:26:14;6.70;99.90
52509;DHT22;38420;53.150;6.370;2022-11-30T11:28:44;6.70;99.90
52509;DHT22;38420;53.150;6.370;2022-11-30T11:33:59;6.60;99.90
52509;DHT22;38420;53.150;6.370;2022-11-30T11:36:34;6.60;99.90
52509;DHT22;38420;53.150;6.370;2022-11-30T11:39:01;6.90;99.90
52509;DHT22;38420;53.150;6.370;2022-11-30T11:41:30;6.70;99.90
52509;DHT22;38420;53.150;6.370;2022-11-30T11:46:26;6.80;99.90
52509;DHT22;38420;53.150;6.370;2022-11-30T11:49:06;6.50;99.90
52509;DHT22;38420;53.150;6.370;2022-11-30T11:51:42;6.80;99.90
52509;DHT22;38420;53.150;6.370;2022-11-30T11:54:22;6.80;99.90
52509;DHT22;38420;53.150;6.370;2022-11-30T11:56:50;6.80;99.90
52509;DHT22;38420;53.150;6.370;2022-11-30T12:02:34;6.50;99.90
52509;DHT22;38420;53.150;6.370;2022-11-30T12:05:17;6.80;99.90
52509;DHT22;38420;53.150;6.370;2022-11-30T12:08:08;6.80;99.90
52509;DHT22;38420;53.150;6.370;2022-11-30T12:10:47;6.70;99.90
52509;DHT22;38420;53.150;6.370;2022-11-30T12:13:19;6.80;99.90
52509;DHT22;38420;53.150;6.370;2022-11-30T12:16:02;6.70;99.90
52509;DHT22;38420;53.150;6.370;2022-11-30T12:18:45;6.80;99.90
52509;DHT22;38420;53.150;6.370;2022-11-30T12:21:14;6.60;99.90
52509;DHT22;38420;53.150;6.370;2022-11-30T12:26:45;6.50;99.90
52509;DHT22;38420;53.150;6.370;2022-11-30T12:32:21;6.80;99.90
52509;DHT22;38420;53.150;6.370;2022-11-30T12:38:05;6.60;99.90
52509;DHT22;38420;53.150;6.370;2022-11-30T12:40:35;6.60;99.90
52509;DHT22;38420;53.150;6.370;2022-11-30T12:45:38;6.50;99.90
52509;DHT22;38420;53.150;6.370;2022-11-30T12:53:53;6.80;99.90
52509;DHT22;38420;53.150;6.370;2022-11-30T13:04:18;6.50;99.90
52509;DHT22;38420;53.150;6.370;2022-11-30T13:07:06;6.50;99.90
52509;DHT22;38420;53.150;6.370;2022-11-30T13:09:46;6.50;99.90
52509;DHT22;38420;53.150;6.370;2022-11-30T13:12:20;6.80;99.90
52509;DHT22;38420;53.150;6.370;2022-11-30T13:14:46;6.70;99.90
52509;DHT22;38420;53.150;6.370;2022-11-30T13:17:16;6.70;99.90
52509;DHT22;38420;53.150;6.370;2022-11-30T13:22:22;6.80;99.90
52509;DHT22;38420;53.150;6.370;2022-11-30T13:24:55;6.70;99.90
52509;DHT22;38420;53.150;6.370;2022-11-30T13:27:30;6.70;99.90
52509;DHT22;38420;53.150;6.370;2022-11-30T13:30:05;6.80;99.90
52509;DHT22;38420;53.150;6.370;2022-11-30T13:32:34;6.80;99.90
52509;DHT22;38420;53.150;6.370;2022-11-30T13:40:38;6.40;99.90
52509;DHT22;38420;53.150;6.370;2022-11-30T13:43:04;6.60;99.90
52509;DHT22;38420;53.150;6.370;2022-11-30T13:45:38;6.60;99.90
52509;DHT22;38420;53.150;6.370;2022-11-30T13:50:50;6.60;99.90
52509;DHT22;38420;53.150;6.370;2022-11-30T13:53:28;6.60;99.90
52509;DHT22;38420;53.150;6.370;2022-11-30T13:59:30;6.40;99.90
52509;DHT22;38420;53.150;6.370;2022-11-30T14:13:06;6.40;99.90
52509;DHT22;38420;53.150;6.370;2022-11-30T14:20:50;6.50;99.90
52509;DHT22;38420;53.150;6.370;2022-11-30T14:26:17;6.50;99.90
52509;DHT22;38420;53.150;6.370;2022-11-30T14:28:51;6.40;99.90
52509;DHT22;38420;53.150;6.370;2022-11-30T14:31:23;6.60;99.90
52509;DHT22;38420;53.150;6.370;2022-11-30T14:36:34;6.40;99.90
52509;DHT22;38420;53.150;6.370;2022-11-30T14:39:00;6.50;99.90
52509;DHT22;38420;53.150;6.370;2022-11-30T14:41:28;6.50;99.90
52509;DHT22;38420;53.150;6.370;2022-11-30T14:46:27;6.30;99.90
52509;DHT22;38420;53.150;6.370;2022-11-30T14:49:23;6.30;99.90
52509;DHT22;38420;53.150;6.370;2022-11-30T14:51:54;6.50;99.90
52509;DHT22;38420;53.150;6.370;2022-11-30T14:54:44;6.50;99.90
52509;DHT22;38420;53.150;6.370;2022-11-30T14:57:28;6.30;99.90
52509;DHT22;38420;53.150;6.370;2022-11-30T14:59:56;6.30;99.90
52509;DHT22;38420;53.150;6.370;2022-11-30T15:02:28;6.30;99.90
52509;DHT22;38420;53.150;6.370;2022-11-30T15:04:55;6.30;99.90
52509;DHT22;38420;53.150;6.370;2022-11-30T15:07:22;6.30;99.90
52509;DHT22;38420;53.150;6.370;2022-11-30T15:09:51;6.30;99.90
52509;DHT22;38420;53.150;6.370;2022-11-30T15:12:19;6.30;99.90
52509;DHT22;38420;53.150;6.370;2022-11-30T15:15:13;6.40;99.90
52509;DHT22;38420;53.150;6.370;2022-11-30T15:23:03;6.50;99.90
52509;DHT22;38420;53.150;6.370;2022-11-30T15:25:38;6.20;99.90
52509;DHT22;38420;53.150;6.370;2022-11-30T15:28:06;6.40;99.90
52509;DHT22;38420;53.150;6.370;2022-11-30T15:30:35;6.50;99.90
52509;DHT22;38420;53.150;6.370;2022-11-30T15:33:01;6.20;99.90
52509;DHT22;38420;53.150;6.370;2022-11-30T15:35:27;6.20;99.90
52509;DHT22;38420;53.150;6.370;2022-11-30T15:37:53;6.50;99.90
52509;DHT22;38420;53.150;6.370;2022-11-30T15:40:31;6.50;99.90
52509;DHT22;38420;53.150;6.370;2022-11-30T15:42:58;6.40;99.90
52509;DHT22;38420;53.150;6.370;2022-11-30T15:45:32;6.30;99.90
52509;DHT22;38420;53.150;6.370;2022-11-30T15:48:00;6.20;99.90
52509;DHT22;38420;53.150;6.370;2022-11-30T15:56:06;6.20;99.90
52509;DHT22;38420;53.150;6.370;2022-11-30T15:58:38;6.10;99.90
52509;DHT22;38420;53.150;6.370;2022-11-30T16:01:15;6.40;99.90
52509;DHT22;38420;53.150;6.370;2022-11-30T16:04:01;6.30;99.90
52509;DHT22;38420;53.150;6.370;2022-11-30T16:06:44;6.40;99.90
52509;DHT22;38420;53.150;6.370;2022-11-30T16:09:39;6.40;99.90
52509;DHT22;38420;53.150;6.370;2022-11-30T16:12:04;6.10;99.90
52509;DHT22;38420;53.150;6.370;2022-11-30T16:14:34;6.40;99.90
52509;DHT22;38420;53.150;6.370;2022-11-30T16:16:59;6.30;99.90
52509;DHT22;38420;53.150;6.370;2022-11-30T16:19:25;6.30;99.90
52509;DHT22;38420;53.150;6.370;2022-11-30T16:21:50;6.40;99.90
52509;DHT22;38420;53.150;6.370;2022-11-30T16:24:16;6.20;99.90
52509;DHT22;38420;53.150;6.370;2022-11-30T16:26:42;6.50;99.90
52509;DHT22;38420;53.150;6.370;2022-11-30T16:29:08;6.40;99.90
52509;DHT22;38420;53.150;6.370;2022-11-30T16:31:34;6.20;99.90
52509;DHT22;38420;53.150;6.370;2022-11-30T16:34:00;6.30;99.90
52509;DHT22;38420;53.150;6.370;2022-11-30T16:36:25;6.20;99.90
52509;DHT22;38420;53.150;6.370;2022-11-30T16:38:52;6.10;99.90
52509;DHT22;38420;53.150;6.370;2022-11-30T16:41:21;6.40;99.90
52509;DHT22;38420;53.150;6.370;2022-11-30T16:43:49;6.10;99.90
52509;DHT22;38420;53.150;6.370;2022-11-30T16:46:17;6.10;99.90
52509;DHT22;38420;53.150;6.370;2022-11-30T16:48:43;6.40;99.90
52509;DHT22;38420;53.150;6.370;2022-11-30T16:51:28;6.10;99.90
52509;DHT22;38420;53.150;6.370;2022-11-30T16:53:54;6.30;99.90
52509;DHT22;38420;53.150;6.370;2022-11-30T16:56:20;6.10;99.90
52509;DHT22;38420;53.150;6.370;2022-11-30T16:58:46;6.20;99.90
52509;DHT22;38420;53.150;6.370;2022-11-30T17:03:51;6.20;99.90
52509;DHT22;38420;53.150;6.370;2022-11-30T17:06:21;6.20;99.90
52509;DHT22;38420;53.150;6.370;2022-11-30T17:08:48;6.10;99.90
52509;DHT22;38420;53.150;6.370;2022-11-30T17:11:27;6.40;99.90
52509;DHT22;38420;53.150;6.370;2022-11-30T17:13:53;6.10;99.90
52509;DHT22;38420;53.150;6.370;2022-11-30T17:16:19;6.20;99.90
52509;DHT22;38420;53.150;6.370;2022-11-30T17:18:44;6.40;99.90
52509;DHT22;38420;53.150;6.370;2022-11-30T17:21:14;6.40;99.90
52509;DHT22;38420;53.150;6.370;2022-11-30T17:23:41;6.40;99.90
52509;DHT22;38420;53.150;6.370;2022-11-30T17:26:07;6.30;99.90
52509;DHT22;38420;53.150;6.370;2022-11-30T17:28:32;6.30;99.90
52509;DHT22;38420;53.150;6.370;2022-11-30T17:30:58;6.30;99.90
52509;DHT22;38420;53.150;6.370;2022-11-30T17:33:24;6.20;99.90
52509;DHT22;38420;53.150;6.370;2022-11-30T17:35:49;6.10;99.90
52509;DHT22;38420;53.150;6.370;2022-11-30T17:38:15;6.30;99.90
52509;DHT22;38420;53.150;6.370;2022-11-30T17:40:41;6.20;99.90
52509;DHT22;38420;53.150;6.370;2022-11-30T17:43:07;6.30;99.90
52509;DHT22;38420;53.150;6.370;2022-11-30T17:45:37;6.30;99.90
52509;DHT22;38420;53.150;6.370;2022-11-30T17:48:03;6.20;99.90
52509;DHT22;38420;53.150;6.370;2022-11-30T17:50:28;6.20;99.90